createdAt,value
2023-04-19T00:02:09.839Z,18.73
2023-04-19T00:17:12.498Z,18.17
2023-04-19T00:32:16.154Z,19.03
2023-04-19T00:47:18.924Z,18.30
2023-04-19T01:02:42.741Z,19.53
2023-04-19T01:17:45.824Z,18.53
2023-04-19T01:32:48.634Z,19.20
2023-04-19T01:47:51.917Z,20.07
2023-04-19T02:02:54.738Z,19.60
2023-04-19T02:18:00.057Z,20.27
2023-04-19T02:33:07.643Z,20.47
2023-04-19T02:48:10.536Z,18.97
2023-04-19T03:03:27.824Z,21.90
2023-04-19T03:18:32.548Z,20.53
2023-04-19T03:33:37.995Z,21.53
2023-04-19T03:48:41.803Z,20.33
2023-04-19T04:03:44.269Z,21.00
2023-04-19T04:18:48.633Z,19.17
2023-04-19T04:33:53.666Z,18.83
2023-04-19T04:49:17.838Z,17.73
2023-04-19T05:04:23.292Z,19.30
2023-04-19T05:19:26.618Z,18.40
2023-04-19T05:34:37.912Z,19.03
2023-04-19T05:49:43.370Z,17.57
2023-04-19T06:04:53.620Z,17.20
2023-04-19T06:19:56.594Z,19.30
2023-04-19T06:35:09.887Z,16.00
2023-04-19T06:50:13.277Z,13.67
2023-04-19T07:05:15.650Z,11.87
2023-04-19T07:20:21.513Z,9.30
2023-04-19T07:35:44.038Z,8.43
2023-04-19T07:51:14.871Z,9.27
2023-04-19T08:06:21.572Z,8.67
2023-04-19T08:21:28.613Z,8.13
2023-04-19T08:37:05.069Z,7.10
2023-04-19T08:52:14.221Z,8.43
2023-04-19T09:07:26.877Z,9.00
2023-04-19T09:22:29.487Z,8.60
2023-04-19T09:37:57.448Z,8.37
2023-04-19T09:53:13.166Z,9.80
2023-04-19T10:08:17.090Z,10.20
2023-04-19T10:23:22.832Z,6.80
2023-04-19T10:38:49.351Z,8.50
2023-04-19T10:54:37.837Z,6.70
2023-04-19T11:09:52.274Z,6.87
2023-04-19T11:24:56.346Z,4.80
2023-04-19T11:40:10.149Z,5.20
2023-04-19T11:55:20.070Z,5.27
2023-04-19T12:10:35.532Z,3.20
2023-04-19T12:25:38.314Z,3.67
2023-04-19T12:40:49.100Z,4.10
2023-04-19T12:55:51.584Z,4.33
2023-04-19T13:10:55.614Z,7.57
2023-04-19T13:26:18.156Z,4.30
2023-04-19T13:41:41.266Z,4.93
2023-04-19T13:56:46.312Z,3.93
2023-04-19T14:11:49.351Z,4.47
2023-04-19T14:27:09.092Z,3.93
2023-04-19T14:42:14.268Z,5.50
2023-04-19T14:57:17.470Z,6.63
2023-04-19T15:12:40.044Z,4.67
2023-04-19T15:27:42.657Z,3.93
2023-04-19T15:42:55.795Z,6.63
2023-04-19T15:58:03.941Z,7.03
2023-04-19T16:13:07.051Z,5.10
2023-04-19T16:28:09.649Z,5.33
2023-04-19T16:43:12.157Z,3.60
2023-04-19T16:58:14.864Z,5.47
2023-04-19T17:13:17.751Z,3.27
2023-04-19T17:28:23.829Z,3.10
2023-04-19T17:43:29.672Z,3.30
2023-04-19T17:58:33.666Z,3.07
2023-04-19T18:13:39.721Z,4.30
2023-04-19T18:28:48.244Z,4.17
2023-04-19T18:44:19.574Z,4.20
2023-04-19T19:14:51.104Z,5.33
2023-04-19T19:29:57.422Z,4.33
2023-04-19T19:45:10.802Z,3.57
2023-04-19T20:00:51.194Z,2.97
2023-04-19T20:16:16.104Z,3.47
2023-04-19T20:31:40.977Z,4.30
2023-04-19T20:46:49.319Z,4.03
2023-04-19T21:01:54.887Z,4.30
2023-04-19T21:17:00.311Z,4.97
2023-04-19T21:32:17.811Z,4.30
2023-04-19T21:47:20.801Z,5.00
2023-04-19T22:02:23.902Z,5.63
2023-04-19T22:17:46.452Z,5.27
2023-04-19T22:32:49.378Z,5.77
2023-04-19T22:47:52.712Z,5.27
2023-04-19T23:02:55.727Z,5.20
2023-04-19T23:17:59.465Z,5.73
2023-04-19T23:33:02.119Z,5.30
2023-04-19T23:48:24.851Z,5.93
